createdAt,value
2018-10-05T00:00:53.126Z,24.53
2018-10-05T00:04:56.191Z,23.90
2018-10-05T00:08:59.098Z,24.90
2018-10-05T00:13:01.950Z,25.17
2018-10-05T00:17:04.942Z,26.67
2018-10-05T00:21:07.792Z,26.40
2018-10-05T00:25:10.694Z,27.30
2018-10-05T00:29:13.546Z,24.00
2018-10-05T00:33:16.667Z,25.13
2018-10-05T00:37:19.555Z,30.43
2018-10-05T00:41:22.448Z,24.90
2018-10-05T00:45:25.639Z,30.47
2018-10-05T00:49:28.644Z,26.00
2018-10-05T00:53:31.570Z,25.97
2018-10-05T00:57:34.395Z,28.60
2018-10-05T01:01:37.278Z,29.50
2018-10-05T01:05:40.186Z,28.43
2018-10-05T01:09:43.040Z,26.33
2018-10-05T01:13:45.990Z,26.20
2018-10-05T01:17:48.915Z,27.97
2018-10-05T01:21:51.814Z,28.60
2018-10-05T01:25:54.666Z,25.67
2018-10-05T01:29:57.915Z,28.03
2018-10-05T01:34:00.759Z,29.37
2018-10-05T01:38:03.651Z,28.30
2018-10-05T01:42:06.714Z,27.70
2018-10-05T01:46:09.767Z,28.70
2018-10-05T01:50:12.623Z,26.27
2018-10-05T01:54:15.544Z,27.13
2018-10-05T01:58:18.414Z,26.67
2018-10-05T02:02:21.325Z,28.23
2018-10-05T02:06:24.299Z,29.93
2018-10-05T02:10:27.527Z,28.90
2018-10-05T02:14:30.462Z,26.87
2018-10-05T02:18:33.399Z,27.77
2018-10-05T02:22:36.471Z,27.00
2018-10-05T02:26:39.387Z,32.23
2018-10-05T02:30:42.247Z,28.27
2018-10-05T02:34:45.165Z,26.60
2018-10-05T02:38:48.019Z,31.97
2018-10-05T02:42:50.926Z,28.50
2018-10-05T02:46:54.194Z,27.27
2018-10-05T02:50:57.295Z,29.10
2018-10-05T02:55:00.146Z,28.47
2018-10-05T02:59:03.055Z,27.60
2018-10-05T03:03:06.199Z,26.40
2018-10-05T03:07:09.113Z,29.90
2018-10-05T03:11:12.274Z,24.70
2018-10-05T03:15:15.193Z,28.87
2018-10-05T03:19:18.042Z,26.60
2018-10-05T03:23:20.954Z,24.53
2018-10-05T03:27:23.803Z,29.20
2018-10-05T03:31:26.908Z,29.30
2018-10-05T03:35:29.746Z,27.47
2018-10-05T03:39:32.654Z,28.77
2018-10-05T03:43:35.723Z,29.67
2018-10-05T03:47:38.739Z,30.20
2018-10-05T03:51:41.582Z,24.33
2018-10-05T03:55:44.478Z,27.40
2018-10-05T03:59:47.331Z,29.00
2018-10-05T04:03:50.431Z,27.00
2018-10-05T04:07:53.278Z,27.70
2018-10-05T04:11:56.193Z,24.53
2018-10-05T04:15:59.035Z,28.40
2018-10-05T04:20:01.933Z,28.13
2018-10-05T04:24:04.851Z,28.47
2018-10-05T04:28:07.762Z,27.00
2018-10-05T04:32:10.610Z,30.87
2018-10-05T04:36:13.505Z,27.90
2018-10-05T04:40:16.568Z,25.00
2018-10-05T04:44:19.466Z,28.90
2018-10-05T04:48:22.701Z,28.73
2018-10-05T04:52:25.636Z,27.20
2018-10-05T04:56:28.704Z,25.03
2018-10-05T05:00:31.610Z,27.63
2018-10-05T05:04:34.462Z,33.37
2018-10-05T05:08:37.571Z,27.10
2018-10-05T05:12:40.418Z,30.83
2018-10-05T05:16:43.333Z,29.57
2018-10-05T05:20:46.189Z,30.50
2018-10-05T05:24:49.074Z,27.43
2018-10-05T05:28:52.143Z,27.73
2018-10-05T05:32:55.102Z,27.27
2018-10-05T05:36:57.955Z,26.40
2018-10-05T05:41:01.066Z,28.57
2018-10-05T05:45:03.915Z,24.97
2018-10-05T05:49:07.200Z,25.87
2018-10-05T05:53:10.107Z,25.87
2018-10-05T05:57:12.942Z,23.50
2018-10-05T06:01:16.076Z,21.90
2018-10-05T06:05:18.890Z,22.53
2018-10-05T06:09:21.750Z,26.17
2018-10-05T06:13:24.647Z,25.63
2018-10-05T06:17:27.495Z,24.33
2018-10-05T06:21:30.620Z,21.27
2018-10-05T06:25:33.510Z,18.13
2018-10-05T06:29:36.616Z,23.80
2018-10-05T06:33:39.677Z,20.00
2018-10-05T06:37:42.623Z,19.87
2018-10-05T06:41:45.696Z,21.90
2018-10-05T06:45:48.603Z,23.60
2018-10-05T06:49:51.679Z,18.50
2018-10-05T06:53:54.807Z,16.23
2018-10-05T06:57:57.807Z,16.63
2018-10-05T07:02:00.770Z,21.50
2018-10-05T07:06:03.563Z,19.20
2018-10-05T07:10:06.458Z,19.27
2018-10-05T07:14:09.387Z,21.00
2018-10-05T07:18:12.290Z,17.13
2018-10-05T07:22:15.381Z,18.63
2018-10-05T07:26:18.262Z,22.00
2018-10-05T07:30:21.383Z,20.97
2018-10-05T07:34:24.503Z,20.47
2018-10-05T07:38:27.376Z,18.67
2018-10-05T07:42:30.275Z,19.43
2018-10-05T07:46:33.226Z,14.03
2018-10-05T07:50:36.296Z,17.47
2018-10-05T07:54:39.155Z,14.80
2018-10-05T07:58:42.174Z,17.10
2018-10-05T08:02:45.247Z,17.20
2018-10-05T08:06:48.164Z,14.30
2018-10-05T08:10:51.010Z,16.83
2018-10-05T08:14:53.907Z,14.53
2018-10-05T08:18:56.874Z,15.70
2018-10-05T08:22:59.992Z,17.63
2018-10-05T08:27:03.010Z,16.43
2018-10-05T08:31:05.903Z,13.57
2018-10-05T08:35:08.978Z,16.67
2018-10-05T08:39:12.554Z,15.13
2018-10-05T08:43:15.653Z,16.10
2018-10-05T08:47:18.547Z,14.20
2018-10-05T08:51:21.735Z,14.67
2018-10-05T08:55:24.634Z,15.70
2018-10-05T08:59:27.490Z,13.47
2018-10-05T09:03:30.616Z,15.90
2018-10-05T09:07:33.679Z,14.03
2018-10-05T09:11:36.732Z,13.03
2018-10-05T09:15:39.604Z,12.80
2018-10-05T09:19:42.703Z,15.87
2018-10-05T09:23:45.563Z,14.47
2018-10-05T09:27:48.470Z,15.37
2018-10-05T09:31:51.544Z,14.97
2018-10-05T09:35:54.611Z,12.57
2018-10-05T09:39:57.450Z,14.60
2018-10-05T09:44:00.579Z,13.43
2018-10-05T09:48:03.708Z,13.37
2018-10-05T09:52:06.632Z,19.50
2018-10-05T09:56:09.466Z,13.67
2018-10-05T10:00:18.385Z,14.20
2018-10-05T10:04:21.305Z,16.83
2018-10-05T10:08:24.278Z,17.40
2018-10-05T10:12:27.142Z,14.23
2018-10-05T10:16:30.078Z,12.40
2018-10-05T10:20:32.998Z,15.60
2018-10-05T10:24:36.107Z,13.10
2018-10-05T10:28:39.055Z,12.67
2018-10-05T10:32:41.851Z,13.87
2018-10-05T10:36:44.906Z,17.07
2018-10-05T10:40:47.758Z,12.83
2018-10-05T10:44:50.823Z,13.87
2018-10-05T10:48:53.751Z,18.57
2018-10-05T10:52:56.830Z,13.63
2018-10-05T10:56:59.904Z,14.80
2018-10-05T11:01:02.828Z,19.10
2018-10-05T11:05:05.980Z,17.30
2018-10-05T11:09:08.839Z,15.10
2018-10-05T11:13:11.791Z,14.80
2018-10-05T11:17:14.638Z,16.70
2018-10-05T11:21:17.591Z,13.97
2018-10-05T11:25:20.522Z,17.00
2018-10-05T11:29:23.454Z,14.90
2018-10-05T11:33:26.513Z,15.47
2018-10-05T11:37:29.811Z,17.57
2018-10-05T11:41:32.674Z,15.30
2018-10-05T11:45:35.958Z,18.23
2018-10-05T11:49:38.807Z,17.40
2018-10-05T11:53:41.787Z,14.57
2018-10-05T11:57:44.715Z,18.20
2018-10-05T12:01:47.866Z,15.87
2018-10-05T12:05:50.723Z,21.77
2018-10-05T12:09:53.709Z,12.63
2018-10-05T12:13:56.768Z,12.60
2018-10-05T12:17:59.655Z,12.40
2018-10-05T12:22:02.503Z,14.40
2018-10-05T12:26:05.386Z,14.60
2018-10-05T12:30:08.277Z,14.23
2018-10-05T12:34:11.123Z,12.70
2018-10-05T12:38:14.287Z,14.23
2018-10-05T12:42:17.314Z,18.97
2018-10-05T12:46:20.159Z,11.20
2018-10-05T12:50:23.150Z,20.50
2018-10-05T12:54:26.235Z,20.57
2018-10-05T12:58:29.123Z,13.93
2018-10-05T13:02:31.982Z,10.20
2018-10-05T13:06:35.095Z,10.27
2018-10-05T13:10:37.943Z,9.30
2018-10-05T13:14:40.858Z,15.00
2018-10-05T13:18:43.915Z,9.20
2018-10-05T13:22:46.918Z,14.53
2018-10-05T13:26:50.035Z,14.30
2018-10-05T13:30:52.980Z,11.00
2018-10-05T13:34:56.024Z,7.77
2018-10-05T13:38:59.194Z,11.30
2018-10-05T13:43:02.282Z,16.90
2018-10-05T13:47:05.182Z,12.67
2018-10-05T13:51:08.043Z,6.43
2018-10-05T13:55:11.215Z,7.63
2018-10-05T13:59:14.063Z,13.70
2018-10-05T14:03:17.183Z,12.63
2018-10-05T14:07:20.353Z,10.13
2018-10-05T14:11:23.243Z,11.53
2018-10-05T14:15:26.082Z,19.50
2018-10-05T14:19:28.986Z,10.07
2018-10-05T14:23:32.040Z,11.90
2018-10-05T14:27:35.034Z,8.27
2018-10-05T14:31:37.877Z,9.87
2018-10-05T14:35:40.967Z,12.47
2018-10-05T14:39:43.971Z,8.70
2018-10-05T14:43:46.859Z,12.30
2018-10-05T14:47:49.912Z,14.47
2018-10-05T14:51:52.901Z,8.30
2018-10-05T14:55:55.739Z,11.77
2018-10-05T14:59:58.630Z,13.03
2018-10-05T15:04:01.479Z,14.50
2018-10-05T15:08:04.655Z,12.50
2018-10-05T15:12:07.508Z,11.07
2018-10-05T15:16:10.782Z,7.67
2018-10-05T15:20:13.566Z,8.43
2018-10-05T15:24:16.476Z,8.23
2018-10-05T15:28:19.520Z,11.83
2018-10-05T15:32:22.511Z,9.43
2018-10-05T15:36:25.442Z,10.80
2018-10-05T15:40:28.462Z,10.27
2018-10-05T15:44:31.306Z,11.70
2018-10-05T15:48:34.522Z,7.80
2018-10-05T15:52:37.367Z,10.60
2018-10-05T15:56:40.467Z,9.60
2018-10-05T16:00:43.314Z,11.10
2018-10-05T16:04:46.230Z,9.53
2018-10-05T16:08:49.280Z,12.43
2018-10-05T16:12:52.194Z,9.20
2018-10-05T16:16:55.068Z,10.17
2018-10-05T16:20:57.975Z,16.23
2018-10-05T16:25:00.823Z,14.50
2018-10-05T16:29:03.953Z,9.07
2018-10-05T16:33:06.818Z,10.47
2018-10-05T16:37:09.726Z,7.73
2018-10-05T16:41:13.031Z,9.30
2018-10-05T16:45:15.927Z,9.33
2018-10-05T16:49:19.679Z,10.73
2018-10-05T16:53:22.589Z,9.30
2018-10-05T16:57:25.702Z,8.83
2018-10-05T17:01:28.558Z,10.10
2018-10-05T17:05:31.526Z,12.60
2018-10-05T17:09:34.636Z,9.87
2018-10-05T17:13:37.767Z,11.67
2018-10-05T17:17:40.678Z,12.87
2018-10-05T17:21:43.549Z,12.50
2018-10-05T17:25:46.675Z,15.80
2018-10-05T17:29:49.546Z,15.00
2018-10-05T17:33:52.556Z,16.60
2018-10-05T17:37:55.871Z,9.50
2018-10-05T17:41:58.682Z,14.13
2018-10-05T17:46:01.591Z,11.87
2018-10-05T17:50:04.731Z,14.53
2018-10-05T17:54:07.851Z,18.70
2018-10-05T17:58:10.715Z,14.50
2018-10-05T18:02:13.831Z,17.80
2018-10-05T18:06:16.898Z,13.83
2018-10-05T18:10:19.803Z,22.13
2018-10-05T18:14:22.654Z,16.30
2018-10-05T18:18:25.775Z,14.40
2018-10-05T18:22:28.623Z,14.40
2018-10-05T18:26:31.955Z,16.83
2018-10-05T18:30:35.039Z,12.87
2018-10-05T18:34:38.102Z,16.43
2018-10-05T18:38:40.962Z,15.23
2018-10-05T18:42:44.251Z,17.50
2018-10-05T18:46:47.211Z,13.90
2018-10-05T18:50:50.390Z,11.33
2018-10-05T18:54:53.399Z,12.73
2018-10-05T18:58:56.492Z,17.83
2018-10-05T19:02:59.597Z,12.43
2018-10-05T19:07:02.620Z,13.50
2018-10-05T19:11:05.636Z,12.43
2018-10-05T19:15:08.526Z,15.13
2018-10-05T19:19:11.611Z,10.17
2018-10-05T19:23:14.467Z,11.43
2018-10-05T19:27:17.859Z,12.13
2018-10-05T19:31:20.795Z,15.47
2018-10-05T19:35:23.710Z,15.03
2018-10-05T19:39:26.819Z,12.20
2018-10-05T19:43:29.823Z,16.80
2018-10-05T19:47:32.687Z,29.93
2018-10-05T19:51:36.455Z,12.20
2018-10-05T19:55:43.744Z,13.03
2018-10-05T19:59:46.633Z,14.73
2018-10-05T20:03:49.486Z,13.37
2018-10-05T20:07:52.407Z,13.53
2018-10-05T20:11:55.254Z,13.57
2018-10-05T20:15:58.399Z,11.40
2018-10-05T20:20:01.287Z,12.47
2018-10-05T20:24:04.395Z,13.63
2018-10-05T20:28:07.611Z,11.40
2018-10-05T20:32:10.502Z,10.43
2018-10-05T20:36:13.561Z,10.87
2018-10-05T20:40:16.319Z,10.13
2018-10-05T20:44:19.377Z,10.00
2018-10-05T20:48:22.282Z,8.53
2018-10-05T20:52:25.116Z,10.30
2018-10-05T20:56:28.011Z,10.43
2018-10-05T21:00:30.846Z,7.80
2018-10-05T21:04:33.758Z,6.60
2018-10-05T21:08:36.807Z,5.27
2018-10-05T21:12:39.778Z,5.27
2018-10-05T21:16:42.623Z,5.97
2018-10-05T21:20:45.730Z,7.67
2018-10-05T21:24:48.582Z,11.97
2018-10-05T21:28:51.590Z,11.23
2018-10-05T21:32:54.492Z,11.10
2018-10-05T21:36:57.574Z,11.00
2018-10-05T21:41:00.415Z,9.60
2018-10-05T21:45:03.347Z,11.83
2018-10-05T21:49:06.649Z,10.73
2018-10-05T21:53:09.547Z,9.20
2018-10-05T21:57:12.406Z,9.60
2018-10-05T22:01:15.308Z,11.30
2018-10-05T22:05:18.250Z,11.30
2018-10-05T22:09:21.147Z,15.50
2018-10-05T22:13:24.198Z,11.37
2018-10-05T22:17:27.351Z,10.50
2018-10-05T22:21:30.199Z,12.57
2018-10-05T22:25:33.123Z,10.87
2018-10-05T22:29:36.292Z,8.63
2018-10-05T22:33:39.199Z,7.50
2018-10-05T22:37:42.053Z,6.90
2018-10-05T22:41:45.351Z,6.30
2018-10-05T22:45:48.194Z,5.97
2018-10-05T22:49:51.106Z,6.00
2018-10-05T22:53:53.955Z,5.73
2018-10-05T22:57:57.019Z,5.50
2018-10-05T23:01:59.895Z,4.57
2018-10-05T23:06:02.910Z,5.93
2018-10-05T23:10:05.808Z,5.10
2018-10-05T23:14:08.718Z,5.53
2018-10-05T23:18:11.577Z,5.63
2018-10-05T23:22:14.835Z,9.20
2018-10-05T23:26:17.680Z,6.83
2018-10-05T23:30:20.579Z,8.73
2018-10-05T23:34:23.431Z,8.83
2018-10-05T23:38:26.492Z,6.50
2018-10-05T23:42:29.339Z,6.23
2018-10-05T23:46:32.282Z,7.00
2018-10-05T23:50:35.254Z,6.47
2018-10-05T23:54:38.343Z,5.60
2018-10-05T23:58:41.550Z,7.27
